createdAt,value
2023-08-02T00:00:56.246Z,63.56
2023-08-02T00:03:35.707Z,63.84
2023-08-02T00:06:04.062Z,63.67
2023-08-02T00:08:33.384Z,63.78
2023-08-02T00:11:01.633Z,63.88
2023-08-02T00:13:29.700Z,63.67
2023-08-02T00:15:58.003Z,64.00
2023-08-02T00:18:26.358Z,63.93
2023-08-02T00:20:54.525Z,64.06
2023-08-02T00:23:22.700Z,64.25
2023-08-02T00:25:52.829Z,64.35
2023-08-02T00:28:21.098Z,64.58
2023-08-02T00:30:49.635Z,64.30
2023-08-02T00:33:18.061Z,64.51
2023-08-02T00:35:47.570Z,64.36
2023-08-02T00:38:16.351Z,64.64
2023-08-02T00:40:45.012Z,64.67
2023-08-02T00:43:14.341Z,64.62
2023-08-02T00:45:42.712Z,64.84
2023-08-02T00:48:11.012Z,64.74
2023-08-02T00:50:39.363Z,65.26
2023-08-02T00:53:08.156Z,64.97
2023-08-02T00:55:36.535Z,65.18
2023-08-02T00:58:04.943Z,65.45
2023-08-02T01:00:33.110Z,65.74
2023-08-02T01:03:01.286Z,65.58
2023-08-02T01:05:34.072Z,66.27
2023-08-02T01:08:04.742Z,65.77
2023-08-02T01:10:36.250Z,66.05
2023-08-02T01:13:07.373Z,67.29
2023-08-02T01:15:35.642Z,66.50
2023-08-02T01:18:06.834Z,66.69
2023-08-02T01:20:35.467Z,66.40
2023-08-02T01:23:03.650Z,66.72
2023-08-02T01:25:32.847Z,66.74
2023-08-02T01:28:06.339Z,66.58
2023-08-02T01:30:37.971Z,67.63
2023-08-02T01:33:07.112Z,67.12
2023-08-02T01:35:35.874Z,67.12
2023-08-02T01:38:05.795Z,67.56
2023-08-02T01:40:34.064Z,66.96
2023-08-02T01:43:02.234Z,67.20
2023-08-02T01:45:30.320Z,67.44
2023-08-02T01:47:58.541Z,67.31
2023-08-02T01:50:29.533Z,67.94
2023-08-02T01:52:58.655Z,67.90
2023-08-02T01:55:27.568Z,67.72
2023-08-02T01:57:56.199Z,68.13
2023-08-02T02:00:24.575Z,67.98
2023-08-02T02:02:52.833Z,67.61
2023-08-02T02:05:21.322Z,68.01
2023-08-02T02:07:56.985Z,67.84
2023-08-02T02:10:25.112Z,68.58
2023-08-02T02:12:53.466Z,68.70
2023-08-02T02:15:21.706Z,68.78
2023-08-02T02:17:50.151Z,68.80
2023-08-02T02:20:18.562Z,69.08
2023-08-02T02:22:46.834Z,69.23
2023-08-02T02:25:15.118Z,69.06
2023-08-02T02:27:44.314Z,69.53
2023-08-02T02:30:12.523Z,69.28
2023-08-02T02:32:40.803Z,69.50
2023-08-02T02:35:09.448Z,69.68
2023-08-02T02:37:37.562Z,70.32
2023-08-02T02:40:19.104Z,69.87
2023-08-02T02:42:47.389Z,70.05
2023-08-02T02:45:15.661Z,70.47
2023-08-02T02:47:43.950Z,70.46
2023-08-02T02:50:12.209Z,70.41
2023-08-02T02:52:42.546Z,70.39
2023-08-02T02:55:11.219Z,70.57
2023-08-02T02:57:39.598Z,70.73
2023-08-02T03:00:09.742Z,70.59
2023-08-02T03:02:38.559Z,70.64
2023-08-02T03:05:07.293Z,71.32
2023-08-02T03:07:35.875Z,71.56
2023-08-02T03:10:04.997Z,71.27
2023-08-02T03:12:33.242Z,71.27
2023-08-02T03:15:01.528Z,70.97
2023-08-02T03:17:30.044Z,70.99
2023-08-02T03:19:58.275Z,70.58
2023-08-02T03:22:26.554Z,69.73
2023-08-02T03:24:58.101Z,69.22
2023-08-02T03:27:26.391Z,68.95
2023-08-02T03:29:54.657Z,68.72
2023-08-02T03:32:23.258Z,68.95
2023-08-02T03:34:51.718Z,68.85
2023-08-02T03:37:19.996Z,68.98
2023-08-02T03:39:48.473Z,69.65
2023-08-02T03:42:26.070Z,69.79
2023-08-02T03:44:54.488Z,69.07
2023-08-02T03:47:22.736Z,69.14
2023-08-02T03:49:51.098Z,69.02
2023-08-02T03:52:19.372Z,68.82
2023-08-02T03:54:48.983Z,68.43
2023-08-02T03:57:17.462Z,68.83
2023-08-02T03:59:45.838Z,68.14
2023-08-02T04:02:15.248Z,68.43
2023-08-02T04:04:44.463Z,68.36
2023-08-02T04:07:20.654Z,67.92
2023-08-02T04:09:49.094Z,68.12
2023-08-02T04:12:21.043Z,68.07
2023-08-02T04:14:49.419Z,68.93
2023-08-02T04:17:17.699Z,68.88
2023-08-02T04:19:46.095Z,68.83
2023-08-02T04:22:14.391Z,69.56
2023-08-02T04:24:42.563Z,69.48
2023-08-02T04:27:18.283Z,69.14
2023-08-02T04:29:46.653Z,68.79
2023-08-02T04:32:15.153Z,68.57
2023-08-02T04:34:43.523Z,67.79
2023-08-02T04:37:11.699Z,68.65
2023-08-02T04:39:40.173Z,68.92
2023-08-02T04:42:08.548Z,68.37
2023-08-02T04:44:36.927Z,68.28
2023-08-02T04:47:05.304Z,67.31
2023-08-02T04:49:33.675Z,66.96
2023-08-02T04:52:01.748Z,66.66
2023-08-02T04:54:29.929Z,66.93
2023-08-02T04:56:58.092Z,66.97
2023-08-02T04:59:26.271Z,66.57
2023-08-02T05:01:55.582Z,66.58
2023-08-02T05:04:23.982Z,66.59
2023-08-02T05:06:52.224Z,67.31
2023-08-02T05:09:20.397Z,66.57
2023-08-02T05:11:48.588Z,66.17
2023-08-02T05:14:16.743Z,65.75
2023-08-02T05:16:44.914Z,64.96
2023-08-02T05:19:13.211Z,63.09
2023-08-02T05:21:41.771Z,60.45
2023-08-02T05:24:10.162Z,55.33
2023-08-02T05:26:39.262Z,54.05
2023-08-02T05:29:07.533Z,52.53
2023-08-02T05:31:35.733Z,46.68
2023-08-02T05:34:04.002Z,46.08
2023-08-02T05:36:32.101Z,43.29
2023-08-02T05:39:00.322Z,45.01
2023-08-02T05:41:28.701Z,44.70
2023-08-02T05:43:56.874Z,41.92
2023-08-02T05:46:25.045Z,39.63
2023-08-02T05:48:53.329Z,37.63
2023-08-02T05:51:21.601Z,38.99
2023-08-02T05:53:50.389Z,36.99
2023-08-02T05:56:18.562Z,36.66
2023-08-02T05:58:46.737Z,36.01
2023-08-02T06:01:14.928Z,37.02
2023-08-02T06:03:43.241Z,38.16
2023-08-02T06:06:11.602Z,37.79
2023-08-02T06:08:44.868Z,38.34
2023-08-02T06:11:13.861Z,39.74
2023-08-02T06:13:42.123Z,40.11
2023-08-02T06:16:10.470Z,41.21
2023-08-02T06:18:38.886Z,41.82
2023-08-02T06:21:07.672Z,41.48
2023-08-02T06:23:36.049Z,41.76
2023-08-02T06:26:04.339Z,40.93
2023-08-02T06:28:32.703Z,40.88
2023-08-02T06:31:01.032Z,41.01
2023-08-02T06:33:29.353Z,40.79
2023-08-02T06:35:57.471Z,41.31
2023-08-02T06:38:26.106Z,43.23
2023-08-02T06:40:54.382Z,43.89
2023-08-02T06:43:25.465Z,45.21
2023-08-02T06:45:53.800Z,46.01
2023-08-02T06:48:23.922Z,47.90
2023-08-02T06:50:52.579Z,48.21
2023-08-02T06:53:20.882Z,49.57
2023-08-02T06:55:49.159Z,50.31
2023-08-02T06:58:17.439Z,49.40
2023-08-02T07:00:45.654Z,50.91
2023-08-02T07:03:13.986Z,52.00
2023-08-02T07:05:43.302Z,51.04
2023-08-02T07:08:11.455Z,50.84
2023-08-02T07:10:39.732Z,51.30
2023-08-02T07:13:08.215Z,51.63
2023-08-02T07:15:36.489Z,50.09
2023-08-02T07:18:04.820Z,51.00
2023-08-02T07:20:33.153Z,50.19
2023-08-02T07:23:01.622Z,50.14
2023-08-02T07:25:29.806Z,50.17
2023-08-02T07:28:00.940Z,49.59
2023-08-02T07:30:29.278Z,49.84
2023-08-02T07:32:57.623Z,49.77
2023-08-02T07:35:25.978Z,49.23
2023-08-02T07:37:54.256Z,48.80
2023-08-02T07:40:22.628Z,49.12
2023-08-02T07:42:50.910Z,49.48
2023-08-02T07:45:19.283Z,49.80
2023-08-02T07:47:47.555Z,50.02
2023-08-02T07:50:16.142Z,50.60
2023-08-02T07:52:44.420Z,50.43
2023-08-02T07:55:12.696Z,50.57
2023-08-02T07:57:40.972Z,50.20
2023-08-02T08:00:09.472Z,49.96
2023-08-02T08:02:41.331Z,50.52
2023-08-02T08:05:13.170Z,49.73
2023-08-02T08:07:44.514Z,48.52
2023-08-02T08:10:12.702Z,48.79
2023-08-02T08:12:41.307Z,48.41
2023-08-02T08:15:19.068Z,48.35
2023-08-02T08:17:47.278Z,48.74
2023-08-02T08:20:15.464Z,48.51
2023-08-02T08:22:43.691Z,48.66
2023-08-02T08:25:11.882Z,48.52
2023-08-02T08:27:40.138Z,49.02
2023-08-02T08:30:08.829Z,49.13
2023-08-02T08:32:37.060Z,49.72
2023-08-02T08:35:05.888Z,49.19
2023-08-02T08:37:34.163Z,49.10
2023-08-02T08:42:33.896Z,49.36
2023-08-02T08:45:02.895Z,49.21
2023-08-02T08:47:31.175Z,48.67
2023-08-02T08:50:03.845Z,48.65
2023-08-02T08:52:33.550Z,48.82
2023-08-02T08:55:02.233Z,48.84
2023-08-02T08:57:32.213Z,48.97
2023-08-02T09:00:01.245Z,49.29
2023-08-02T09:02:31.897Z,48.96
2023-08-02T09:05:02.197Z,49.25
2023-08-02T09:07:30.982Z,49.41
2023-08-02T09:10:00.954Z,49.93
2023-08-02T09:12:43.102Z,49.97
2023-08-02T09:15:11.387Z,49.97
2023-08-02T09:17:51.682Z,50.12
2023-08-02T09:20:24.746Z,50.25
2023-08-02T09:22:53.540Z,51.06
2023-08-02T09:25:22.612Z,52.28
2023-08-02T09:27:51.500Z,51.65
2023-08-02T09:30:26.269Z,50.99
2023-08-02T09:33:01.859Z,49.10
2023-08-02T09:35:54.619Z,47.30
2023-08-02T09:38:23.100Z,46.44
2023-08-02T09:41:40.265Z,45.21
2023-08-02T09:43:48.644Z,45.89
2023-08-02T09:46:24.741Z,45.43
2023-08-02T09:48:53.478Z,44.33
2023-08-02T09:51:21.757Z,45.32
2023-08-02T09:53:56.730Z,45.84
2023-08-02T09:56:26.222Z,45.66
2023-08-02T09:58:55.600Z,44.79
2023-08-02T10:01:25.637Z,44.19
2023-08-02T10:03:57.430Z,42.26
2023-08-02T10:06:29.457Z,41.26
2023-08-02T10:09:04.197Z,42.08
2023-08-02T10:11:46.871Z,41.71
2023-08-02T10:14:15.358Z,40.95
2023-08-02T10:16:44.893Z,41.12
2023-08-02T10:19:14.274Z,41.25
2023-08-02T10:21:43.899Z,43.03
2023-08-02T10:24:13.832Z,42.31
2023-08-02T10:26:42.815Z,42.02
2023-08-02T10:29:11.768Z,42.20
2023-08-02T10:31:41.609Z,42.82
2023-08-02T10:34:28.838Z,43.45
2023-08-02T10:36:56.982Z,43.22
2023-08-02T10:39:55.156Z,42.69
2023-08-02T10:42:24.486Z,43.49
2023-08-02T10:44:55.624Z,43.75
2023-08-02T10:47:27.465Z,44.24
2023-08-02T10:49:56.186Z,44.07
2023-08-02T10:52:29.022Z,44.49
2023-08-02T10:55:23.510Z,44.13
2023-08-02T10:57:55.277Z,44.68
2023-08-02T11:00:27.347Z,44.10
2023-08-02T11:02:55.409Z,44.78
2023-08-02T11:05:45.135Z,44.89
2023-08-02T11:08:13.770Z,44.20
2023-08-02T11:10:48.862Z,43.86
2023-08-02T11:13:17.281Z,44.12
2023-08-02T11:15:47.902Z,44.29
2023-08-02T11:18:31.273Z,45.03
2023-08-02T11:21:10.080Z,44.60
2023-08-02T11:23:39.545Z,45.91
2023-08-02T11:26:26.890Z,46.75
2023-08-02T11:28:55.884Z,49.26
2023-08-02T11:31:25.188Z,51.86
2023-08-02T11:33:54.194Z,54.24
2023-08-02T11:36:22.453Z,54.97
2023-08-02T11:38:51.242Z,57.48
2023-08-02T11:41:20.720Z,56.48
2023-08-02T11:43:49.940Z,55.97
2023-08-02T11:46:20.494Z,55.44
2023-08-02T11:48:49.358Z,55.10
2023-08-02T11:51:21.423Z,57.27
2023-08-02T11:53:50.107Z,56.96
2023-08-02T11:56:18.468Z,59.64
2023-08-02T11:58:46.968Z,62.98
2023-08-02T12:01:15.847Z,60.54
2023-08-02T12:03:54.215Z,58.92
2023-08-02T12:06:22.925Z,57.89
2023-08-02T12:08:54.969Z,63.27
2023-08-02T12:11:24.380Z,63.37
2023-08-02T12:13:52.594Z,61.38
2023-08-02T12:16:21.835Z,59.43
2023-08-02T12:18:54.471Z,57.26
2023-08-02T12:21:23.877Z,56.66
2023-08-02T12:23:53.177Z,56.72
2023-08-02T12:26:34.788Z,56.14
2023-08-02T12:29:04.192Z,56.77
2023-08-02T12:31:45.636Z,57.10
2023-08-02T12:34:14.134Z,58.07
2023-08-02T12:36:42.539Z,57.50
2023-08-02T12:39:10.986Z,59.28
2023-08-02T12:41:39.472Z,61.96
2023-08-02T12:44:07.647Z,60.19
2023-08-02T12:46:35.921Z,58.61
2023-08-02T12:49:04.100Z,58.58
2023-08-02T12:51:32.675Z,57.81
2023-08-02T12:54:00.952Z,59.03
2023-08-02T12:56:29.310Z,58.65
2023-08-02T12:58:57.811Z,58.74
2023-08-02T13:01:26.025Z,58.59
2023-08-02T13:03:54.352Z,58.42
2023-08-02T13:06:22.680Z,58.35
2023-08-02T13:08:51.013Z,58.32
2023-08-02T13:11:19.293Z,58.20
2023-08-02T13:13:47.405Z,58.04
2023-08-02T13:16:15.702Z,57.12
2023-08-02T13:18:43.931Z,56.66
2023-08-02T13:21:12.194Z,55.93
2023-08-02T13:23:40.363Z,56.90
2023-08-02T13:26:08.538Z,56.13
2023-08-02T13:28:36.712Z,55.48
2023-08-02T13:31:05.113Z,55.41
2023-08-02T13:33:33.368Z,55.21
2023-08-02T13:36:01.548Z,55.17
2023-08-02T13:38:30.045Z,55.00
2023-08-02T13:40:59.892Z,54.28
2023-08-02T13:43:29.145Z,54.71
2023-08-02T13:45:57.505Z,54.37
2023-08-02T13:48:25.786Z,54.03
2023-08-02T13:50:54.164Z,54.70
2023-08-02T13:53:22.554Z,53.98
2023-08-02T13:55:51.533Z,54.36
2023-08-02T13:58:19.814Z,53.90
2023-08-02T14:00:47.867Z,53.93
2023-08-02T14:03:16.120Z,54.51
2023-08-02T14:05:46.486Z,54.11
2023-08-02T14:08:14.854Z,53.94
2023-08-02T14:10:45.969Z,53.86
2023-08-02T14:13:14.181Z,53.97
2023-08-02T14:15:42.931Z,54.05
2023-08-02T14:18:11.384Z,54.28
2023-08-02T14:20:42.381Z,53.83
2023-08-02T14:23:10.662Z,53.56
2023-08-02T14:25:38.987Z,53.62
2023-08-02T14:28:09.977Z,53.34
2023-08-02T14:30:38.273Z,53.83
2023-08-02T14:33:06.648Z,53.18
2023-08-02T14:35:35.002Z,52.71
2023-08-02T14:38:03.383Z,52.74
2023-08-02T14:40:31.662Z,52.57
2023-08-02T14:42:59.939Z,52.50
2023-08-02T14:45:28.077Z,52.79
2023-08-02T14:47:56.299Z,52.55
2023-08-02T14:50:26.305Z,52.56
2023-08-02T14:52:54.941Z,52.77
2023-08-02T14:55:23.159Z,52.62
2023-08-02T14:57:51.431Z,52.78
2023-08-02T15:00:19.605Z,52.93
2023-08-02T15:02:48.140Z,52.82
2023-08-02T15:05:18.414Z,52.53
2023-08-02T15:07:46.788Z,52.30
2023-08-02T15:10:15.879Z,51.92
2023-08-02T15:12:47.476Z,51.94
2023-08-02T15:15:16.020Z,52.40
2023-08-02T15:17:45.754Z,52.36
2023-08-02T15:20:14.113Z,52.06
2023-08-02T15:22:42.587Z,51.05
2023-08-02T15:25:11.073Z,50.40
2023-08-02T15:27:39.350Z,50.42
2023-08-02T15:30:08.233Z,50.11
2023-08-02T15:32:36.432Z,49.91
2023-08-02T15:35:05.091Z,49.67
2023-08-02T15:37:33.374Z,50.31
2023-08-02T15:40:01.649Z,49.83
2023-08-02T15:42:30.040Z,50.10
2023-08-02T15:44:59.710Z,50.10
2023-08-02T15:47:30.223Z,49.69
2023-08-02T15:49:59.049Z,50.37
2023-08-02T15:52:28.445Z,49.74
2023-08-02T15:54:58.977Z,49.84
2023-08-02T15:57:27.360Z,49.39
2023-08-02T15:59:55.631Z,50.44
2023-08-02T16:02:26.126Z,50.56
2023-08-02T16:04:54.439Z,50.64
2023-08-02T16:07:22.523Z,50.37
2023-08-02T16:09:51.087Z,50.33
2023-08-02T16:12:19.906Z,50.51
2023-08-02T16:14:48.259Z,51.23
2023-08-02T16:17:16.641Z,51.07
2023-08-02T16:19:45.041Z,51.10
2023-08-02T16:22:13.285Z,50.95
2023-08-02T16:24:41.569Z,51.49
2023-08-02T16:27:10.044Z,51.67
2023-08-02T16:29:38.352Z,51.62
2023-08-02T16:32:06.801Z,51.94
2023-08-02T16:34:34.974Z,52.11
2023-08-02T16:37:04.215Z,52.44
2023-08-02T16:39:32.442Z,52.58
2023-08-02T16:42:00.623Z,53.06
2023-08-02T16:44:28.802Z,53.05
2023-08-02T16:46:57.073Z,52.82
2023-08-02T16:49:25.571Z,53.25
2023-08-02T16:51:53.930Z,53.31
2023-08-02T16:54:22.951Z,53.67
2023-08-02T16:56:51.405Z,53.76
2023-08-02T16:59:19.685Z,54.75
2023-08-02T17:01:47.936Z,55.42
2023-08-02T17:04:16.129Z,55.71
2023-08-02T17:06:44.375Z,56.14
2023-08-02T17:09:12.572Z,56.04
2023-08-02T17:11:40.981Z,56.53
2023-08-02T17:14:09.853Z,56.64
2023-08-02T17:16:38.125Z,56.19
2023-08-02T17:19:06.292Z,56.21
2023-08-02T17:21:36.133Z,57.43
2023-08-02T17:24:04.719Z,58.07
2023-08-02T17:26:32.992Z,58.43
2023-08-02T17:29:01.211Z,60.70
2023-08-02T17:31:29.529Z,60.67
2023-08-02T17:33:58.023Z,61.28
2023-08-02T17:36:26.272Z,61.86
2023-08-02T17:38:54.544Z,62.38
2023-08-02T17:41:26.561Z,63.83
2023-08-02T17:43:55.199Z,64.50
2023-08-02T17:46:23.889Z,65.00
2023-08-02T17:48:52.671Z,64.35
2023-08-02T17:51:20.847Z,64.97
2023-08-02T17:53:49.333Z,66.03
2023-08-02T17:56:17.622Z,65.41
2023-08-02T17:58:45.976Z,65.72
2023-08-02T18:01:15.991Z,66.01
2023-08-02T18:03:46.303Z,66.18
2023-08-02T18:06:15.691Z,65.82
2023-08-02T18:08:44.402Z,66.47
2023-08-02T18:11:14.124Z,66.41
2023-08-02T18:13:43.113Z,64.54
2023-08-02T18:16:12.300Z,67.28
2023-08-02T18:18:42.806Z,68.81
2023-08-02T18:21:12.799Z,69.78
2023-08-02T18:23:41.477Z,67.48
2023-08-02T18:26:13.198Z,67.74
2023-08-02T18:28:42.179Z,68.18
2023-08-02T18:31:10.714Z,67.50
2023-08-02T18:33:39.003Z,69.60
2023-08-02T18:36:11.318Z,68.97
2023-08-02T18:38:40.961Z,67.04
2023-08-02T18:41:18.201Z,65.56
2023-08-02T18:43:48.458Z,62.87
2023-08-02T18:46:17.925Z,64.81
2023-08-02T18:48:47.795Z,71.33
2023-08-02T18:51:19.305Z,68.83
2023-08-02T18:53:49.577Z,67.09
2023-08-02T18:56:19.620Z,71.10
2023-08-02T18:58:49.116Z,66.23
2023-08-02T19:01:18.405Z,66.62
2023-08-02T19:03:47.153Z,68.08
2023-08-02T19:06:15.837Z,69.97
2023-08-02T19:08:46.272Z,69.69
2023-08-02T19:11:22.766Z,68.25
2023-08-02T19:13:52.323Z,68.57
2023-08-02T19:16:20.995Z,68.06
2023-08-02T19:18:49.372Z,67.98
2023-08-02T19:21:18.374Z,71.06
2023-08-02T19:23:46.751Z,76.91
2023-08-02T19:26:18.598Z,77.72
2023-08-02T19:28:47.496Z,76.92
2023-08-02T19:31:16.028Z,77.12
2023-08-02T19:33:45.402Z,75.85
2023-08-02T19:36:20.936Z,77.07
2023-08-02T19:38:49.946Z,75.38
2023-08-02T19:41:38.469Z,71.88
2023-08-02T19:44:09.101Z,70.35
2023-08-02T19:46:37.422Z,68.98
2023-08-02T19:49:05.760Z,72.28
2023-08-02T19:51:34.031Z,74.87
2023-08-02T19:54:02.088Z,74.53
2023-08-02T19:56:30.389Z,72.96
2023-08-02T19:59:02.764Z,68.73
2023-08-02T20:01:31.555Z,73.29
2023-08-02T20:04:02.076Z,73.25
2023-08-02T20:06:32.868Z,72.13
2023-08-02T20:09:01.277Z,77.71
2023-08-02T20:11:29.595Z,77.59
2023-08-02T20:13:58.995Z,77.42
2023-08-02T20:16:27.531Z,79.39
2023-08-02T20:18:56.022Z,80.61
2023-08-02T20:21:24.807Z,81.36
2023-08-02T20:23:57.436Z,82.46
2023-08-02T20:26:26.793Z,84.28
2023-08-02T20:28:56.853Z,84.26
2023-08-02T20:31:25.389Z,84.24
2023-08-02T20:33:54.886Z,83.16
2023-08-02T20:36:23.984Z,79.55
2023-08-02T20:38:56.482Z,82.92
2023-08-02T20:41:28.330Z,84.44
2023-08-02T20:43:57.772Z,84.77
2023-08-02T20:46:27.688Z,82.27
2023-08-02T20:48:57.684Z,83.42
2023-08-02T20:51:39.075Z,82.32
2023-08-02T20:54:08.539Z,83.76
2023-08-02T20:56:37.383Z,82.49
2023-08-02T20:59:12.754Z,80.36
2023-08-02T21:01:44.661Z,79.87
2023-08-02T21:04:13.962Z,78.19
2023-08-02T21:06:50.932Z,76.64
2023-08-02T21:09:22.566Z,76.74
2023-08-02T21:11:50.750Z,75.06
2023-08-02T21:14:22.195Z,76.94
2023-08-02T21:16:52.091Z,79.10
2023-08-02T21:19:20.375Z,83.38
2023-08-02T21:21:56.850Z,81.40
2023-08-02T21:24:26.067Z,81.83
2023-08-02T21:26:55.846Z,84.53
2023-08-02T21:29:24.335Z,86.80
2023-08-02T21:31:53.173Z,84.78
2023-08-02T21:34:21.720Z,85.46
2023-08-02T21:36:50.086Z,83.74
2023-08-02T21:39:18.360Z,78.25
2023-08-02T21:41:46.839Z,80.93
2023-08-02T21:44:15.084Z,82.47
2023-08-02T21:46:45.956Z,83.43
2023-08-02T21:49:14.261Z,81.71
2023-08-02T21:51:42.836Z,79.03
2023-08-02T21:54:11.496Z,78.33
2023-08-02T21:56:39.782Z,78.25
2023-08-02T21:59:09.997Z,78.38
2023-08-02T22:01:38.106Z,80.95
2023-08-02T22:04:07.264Z,80.32
2023-08-02T22:06:37.131Z,77.49
2023-08-02T22:09:05.558Z,76.47
2023-08-02T22:11:33.826Z,79.54
2023-08-02T22:14:02.205Z,80.65
2023-08-02T22:16:31.769Z,79.53
2023-08-02T22:19:00.088Z,80.27
2023-08-02T22:21:28.361Z,79.57
2023-08-02T22:23:56.648Z,77.90
2023-08-02T22:26:27.076Z,77.49
2023-08-02T22:28:55.243Z,84.65
2023-08-02T22:31:23.438Z,83.52
2023-08-02T22:33:51.694Z,82.44
2023-08-02T22:36:19.862Z,82.35
2023-08-02T22:38:49.649Z,83.74
2023-08-02T22:41:18.258Z,85.58
2023-08-02T22:43:47.197Z,86.44
2023-08-02T22:46:15.603Z,85.30
2023-08-02T22:51:14.970Z,85.21
2023-08-02T22:53:43.422Z,86.62
2023-08-02T22:56:11.698Z,83.08
2023-08-02T22:58:40.078Z,80.96
2023-08-02T23:01:10.512Z,81.19
2023-08-02T23:03:45.252Z,80.22
2023-08-02T23:06:17.439Z,82.12
2023-08-02T23:08:46.288Z,85.32
2023-08-02T23:11:16.660Z,87.35
2023-08-02T23:13:48.907Z,85.17
2023-08-02T23:16:25.060Z,85.70
2023-08-02T23:18:58.302Z,89.72
2023-08-02T23:21:34.745Z,87.35
2023-08-02T23:24:03.843Z,87.29
2023-08-02T23:26:32.174Z,89.93
2023-08-02T23:29:01.913Z,92.84
2023-08-02T23:31:31.029Z,91.74
2023-08-02T23:34:01.152Z,93.55
2023-08-02T23:36:30.300Z,92.26
2023-08-02T23:38:58.580Z,92.71
2023-08-02T23:41:26.747Z,91.32
2023-08-02T23:43:55.231Z,91.62
2023-08-02T23:46:23.504Z,90.65
2023-08-02T23:48:51.779Z,87.11
2023-08-02T23:51:20.057Z,83.70
2023-08-02T23:53:48.331Z,85.51
2023-08-02T23:56:16.510Z,84.54
2023-08-02T23:58:44.676Z,89.71
